sensor_id;sensor_type;location;lat;lon;timestamp;temperature;humidity
61253;DHT22;47127;47.516;8.596;2023-03-23T00:00:47;11.80;99.90
61253;DHT22;47127;47.516;8.596;2023-03-23T00:03:13;11.80;99.90
61253;DHT22;47127;47.516;8.596;2023-03-23T00:05:39;11.80;99.90
61253;DHT22;47127;47.516;8.596;2023-03-23T00:08:07;11.80;99.90
61253;DHT22;47127;47.516;8.596;2023-03-23T00:10:35;11.80;99.90
61253;DHT22;47127;47.516;8.596;2023-03-23T00:13:01;11.90;99.90
61253;DHT22;47127;47.516;8.596;2023-03-23T00:15:30;11.90;99.90
61253;DHT22;47127;47.516;8.596;2023-03-23T00:17:59;11.60;99.90
61253;DHT22;47127;47.516;8.596;2023-03-23T00:20:28;11.40;99.90
61253;DHT22;47127;47.516;8.596;2023-03-23T00:23:05;11.10;99.90
61253;DHT22;47127;47.516;8.596;2023-03-23T00:25:32;11.00;99.90
61253;DHT22;47127;47.516;8.596;2023-03-23T00:27:57;10.90;99.90
61253;DHT22;47127;47.516;8.596;2023-03-23T00:30:23;11.00;99.90
61253;DHT22;47127;47.516;8.596;2023-03-23T00:32:49;11.10;99.90
61253;DHT22;47127;47.516;8.596;2023-03-23T00:35:16;11.30;99.90
61253;DHT22;47127;47.516;8.596;2023-03-23T00:37:42;11.30;99.90
61253;DHT22;47127;47.516;8.596;2023-03-23T00:40:09;11.30;99.90
61253;DHT22;47127;47.516;8.596;2023-03-23T00:42:36;11.20;99.90
61253;DHT22;47127;47.516;8.596;2023-03-23T00:45:04;11.30;99.90
61253;DHT22;47127;47.516;8.596;2023-03-23T00:47:36;11.30;99.90
61253;DHT22;47127;47.516;8.596;2023-03-23T00:50:03;11.30;99.90
61253;DHT22;47127;47.516;8.596;2023-03-23T00:52:28;11.30;99.90
61253;DHT22;47127;47.516;8.596;2023-03-23T00:54:54;11.30;99.90
61253;DHT22;47127;47.516;8.596;2023-03-23T00:57:20;11.30;99.90
61253;DHT22;47127;47.516;8.596;2023-03-23T00:59:49;11.30;99.90
61253;DHT22;47127;47.516;8.596;2023-03-23T01:02:15;11.30;99.90
61253;DHT22;47127;47.516;8.596;2023-03-23T01:04:42;11.40;99.90
61253;DHT22;47127;47.516;8.596;2023-03-23T01:07:10;11.50;99.90
61253;DHT22;47127;47.516;8.596;2023-03-23T01:09:38;11.30;99.90
61253;DHT22;47127;47.516;8.596;2023-03-23T01:12:05;11.30;99.90
61253;DHT22;47127;47.516;8.596;2023-03-23T01:14:31;11.40;99.90
61253;DHT22;47127;47.516;8.596;2023-03-23T01:16:56;11.40;99.90
61253;DHT22;47127;47.516;8.596;2023-03-23T01:19:22;11.40;99.90
61253;DHT22;47127;47.516;8.596;2023-03-23T01:21:47;11.40;99.90
61253;DHT22;47127;47.516;8.596;2023-03-23T01:24:13;11.30;99.90
61253;DHT22;47127;47.516;8.596;2023-03-23T01:26:39;11.30;99.90
61253;DHT22;47127;47.516;8.596;2023-03-23T01:29:04;11.40;99.90
61253;DHT22;47127;47.516;8.596;2023-03-23T01:31:30;11.40;99.90
61253;DHT22;47127;47.516;8.596;2023-03-23T01:33:55;11.50;99.90
61253;DHT22;47127;47.516;8.596;2023-03-23T01:36:25;11.60;99.90
61253;DHT22;47127;47.516;8.596;2023-03-23T01:38:52;11.60;99.90
61253;DHT22;47127;47.516;8.596;2023-03-23T01:41:19;11.50;99.90
61253;DHT22;47127;47.516;8.596;2023-03-23T01:46:20;11.60;99.90
61253;DHT22;47127;47.516;8.596;2023-03-23T01:48:49;11.50;99.90
61253;DHT22;47127;47.516;8.596;2023-03-23T01:51:17;11.40;99.90
61253;DHT22;47127;47.516;8.596;2023-03-23T01:53:46;11.50;99.90
61253;DHT22;47127;47.516;8.596;2023-03-23T01:56:14;11.50;99.90
61253;DHT22;47127;47.516;8.596;2023-03-23T01:58:40;11.50;99.90
61253;DHT22;47127;47.516;8.596;2023-03-23T02:01:10;11.50;99.90
61253;DHT22;47127;47.516;8.596;2023-03-23T02:03:41;11.50;99.90
61253;DHT22;47127;47.516;8.596;2023-03-23T02:06:08;11.50;99.90
61253;DHT22;47127;47.516;8.596;2023-03-23T02:08:35;11.40;99.90
61253;DHT22;47127;47.516;8.596;2023-03-23T02:11:08;11.30;99.90
61253;DHT22;47127;47.516;8.596;2023-03-23T02:13:34;11.20;99.90
61253;DHT22;47127;47.516;8.596;2023-03-23T02:16:08;11.30;99.90
61253;DHT22;47127;47.516;8.596;2023-03-23T02:19:18;11.30;99.90
61253;DHT22;47127;47.516;8.596;2023-03-23T02:25:13;11.40;99.90
61253;DHT22;47127;47.516;8.596;2023-03-23T02:33:16;11.40;99.90
61253;DHT22;47127;47.516;8.596;2023-03-23T02:36:01;11.40;99.90
61253;DHT22;47127;47.516;8.596;2023-03-23T02:38:57;11.50;99.90
61253;DHT22;47127;47.516;8.596;2023-03-23T02:41:28;11.60;99.90
61253;DHT22;47127;47.516;8.596;2023-03-23T02:43:57;11.40;99.90
61253;DHT22;47127;47.516;8.596;2023-03-23T02:46:23;11.40;99.90
61253;DHT22;47127;47.516;8.596;2023-03-23T02:48:50;11.40;99.90
61253;DHT22;47127;47.516;8.596;2023-03-23T02:51:20;11.40;99.90
61253;DHT22;47127;47.516;8.596;2023-03-23T02:53:48;11.50;99.90
61253;DHT22;47127;47.516;8.596;2023-03-23T02:56:16;11.50;99.90
61253;DHT22;47127;47.516;8.596;2023-03-23T02:58:42;11.50;99.90
61253;DHT22;47127;47.516;8.596;2023-03-23T03:01:44;11.70;99.90
61253;DHT22;47127;47.516;8.596;2023-03-23T03:04:06;11.80;99.90
61253;DHT22;47127;47.516;8.596;2023-03-23T03:09:49;11.80;99.90
61253;DHT22;47127;47.516;8.596;2023-03-23T03:12:28;11.80;99.90
61253;DHT22;47127;47.516;8.596;2023-03-23T03:17:32;12.00;99.90
61253;DHT22;47127;47.516;8.596;2023-03-23T03:20:03;12.00;99.90
61253;DHT22;47127;47.516;8.596;2023-03-23T03:22:33;12.10;99.90
61253;DHT22;47127;47.516;8.596;2023-03-23T03:25:03;12.10;99.90
61253;DHT22;47127;47.516;8.596;2023-03-23T03:27:29;12.10;99.90
61253;DHT22;47127;47.516;8.596;2023-03-23T03:29:59;12.30;99.90
61253;DHT22;47127;47.516;8.596;2023-03-23T03:32:34;12.20;99.90
61253;DHT22;47127;47.516;8.596;2023-03-23T03:35:02;12.20;99.90
61253;DHT22;47127;47.516;8.596;2023-03-23T03:37:34;12.20;99.90
61253;DHT22;47127;47.516;8.596;2023-03-23T03:40:06;12.20;99.90
61253;DHT22;47127;47.516;8.596;2023-03-23T03:42:40;12.30;99.90
61253;DHT22;47127;47.516;8.596;2023-03-23T03:45:07;12.50;99.90
61253;DHT22;47127;47.516;8.596;2023-03-23T03:47:33;12.60;99.90
61253;DHT22;47127;47.516;8.596;2023-03-23T03:49:58;12.60;99.90
61253;DHT22;47127;47.516;8.596;2023-03-23T03:52:24;12.80;99.90
61253;DHT22;47127;47.516;8.596;2023-03-23T03:54:50;12.90;99.90
61253;DHT22;47127;47.516;8.596;2023-03-23T03:57:16;12.90;99.90
61253;DHT22;47127;47.516;8.596;2023-03-23T03:59:43;12.90;99.90
61253;DHT22;47127;47.516;8.596;2023-03-23T04:02:09;13.00;99.90
61253;DHT22;47127;47.516;8.596;2023-03-23T04:04:34;13.10;99.90
61253;DHT22;47127;47.516;8.596;2023-03-23T04:07:00;13.10;99.90
61253;DHT22;47127;47.516;8.596;2023-03-23T04:09:28;13.10;99.90
61253;DHT22;47127;47.516;8.596;2023-03-23T04:11:53;13.10;99.90
61253;DHT22;47127;47.516;8.596;2023-03-23T04:14:19;13.10;99.90
61253;DHT22;47127;47.516;8.596;2023-03-23T04:16:45;13.00;99.90
61253;DHT22;47127;47.516;8.596;2023-03-23T04:19:10;13.10;99.90
61253;DHT22;47127;47.516;8.596;2023-03-23T04:21:37;13.10;99.90
61253;DHT22;47127;47.516;8.596;2023-03-23T04:24:03;13.00;99.60
61253;DHT22;47127;47.516;8.596;2023-03-23T04:26:29;13.10;99.90
61253;DHT22;47127;47.516;8.596;2023-03-23T04:28:55;12.90;99.90
61253;DHT22;47127;47.516;8.596;2023-03-23T04:31:22;12.80;99.90
61253;DHT22;47127;47.516;8.596;2023-03-23T04:33:50;12.90;99.90
61253;DHT22;47127;47.516;8.596;2023-03-23T04:36:17;12.90;99.90
61253;DHT22;47127;47.516;8.596;2023-03-23T04:38:43;12.90;99.90
61253;DHT22;47127;47.516;8.596;2023-03-23T04:41:09;12.90;99.90
61253;DHT22;47127;47.516;8.596;2023-03-23T04:43:34;12.90;99.90
61253;DHT22;47127;47.516;8.596;2023-03-23T04:46:07;12.90;99.90
61253;DHT22;47127;47.516;8.596;2023-03-23T04:48:34;12.90;99.90
61253;DHT22;47127;47.516;8.596;2023-03-23T04:51:02;12.90;99.90
61253;DHT22;47127;47.516;8.596;2023-03-23T04:53:32;13.00;99.90
61253;DHT22;47127;47.516;8.596;2023-03-23T04:55:58;13.00;99.90
61253;DHT22;47127;47.516;8.596;2023-03-23T04:58:23;13.20;99.90
61253;DHT22;47127;47.516;8.596;2023-03-23T05:00:50;13.20;99.90
61253;DHT22;47127;47.516;8.596;2023-03-23T05:03:16;13.20;99.90
61253;DHT22;47127;47.516;8.596;2023-03-23T05:05:43;13.30;99.90
61253;DHT22;47127;47.516;8.596;2023-03-23T05:08:14;13.30;99.90
61253;DHT22;47127;47.516;8.596;2023-03-23T05:10:40;13.20;99.80
61253;DHT22;47127;47.516;8.596;2023-03-23T05:13:06;13.30;99.90
61253;DHT22;47127;47.516;8.596;2023-03-23T05:15:31;13.30;99.90
61253;DHT22;47127;47.516;8.596;2023-03-23T05:17:57;13.20;99.90
61253;DHT22;47127;47.516;8.596;2023-03-23T05:20:22;13.20;99.90
61253;DHT22;47127;47.516;8.596;2023-03-23T05:22:48;13.30;99.90
61253;DHT22;47127;47.516;8.596;2023-03-23T05:25:15;13.20;99.90
61253;DHT22;47127;47.516;8.596;2023-03-23T05:27:44;13.20;99.90
61253;DHT22;47127;47.516;8.596;2023-03-23T05:30:14;13.20;99.80
61253;DHT22;47127;47.516;8.596;2023-03-23T05:32:42;13.20;99.90
61253;DHT22;47127;47.516;8.596;2023-03-23T05:35:08;13.30;99.90
61253;DHT22;47127;47.516;8.596;2023-03-23T05:37:34;13.30;99.90
61253;DHT22;47127;47.516;8.596;2023-03-23T05:39:59;13.30;99.90
61253;DHT22;47127;47.516;8.596;2023-03-23T05:42:31;13.20;99.70
61253;DHT22;47127;47.516;8.596;2023-03-23T05:44:57;13.30;99.80
61253;DHT22;47127;47.516;8.596;2023-03-23T05:47:23;13.30;98.90
61253;DHT22;47127;47.516;8.596;2023-03-23T05:49:50;13.40;99.20
61253;DHT22;47127;47.516;8.596;2023-03-23T05:52:17;13.50;98.60
61253;DHT22;47127;47.516;8.596;2023-03-23T05:54:43;13.60;98.50
61253;DHT22;47127;47.516;8.596;2023-03-23T05:57:08;13.60;98.50
61253;DHT22;47127;47.516;8.596;2023-03-23T05:59:35;13.70;98.00
61253;DHT22;47127;47.516;8.596;2023-03-23T06:02:00;13.70;98.00
61253;DHT22;47127;47.516;8.596;2023-03-23T06:04:26;13.80;98.20
61253;DHT22;47127;47.516;8.596;2023-03-23T06:06:52;13.70;98.20
61253;DHT22;47127;47.516;8.596;2023-03-23T06:09:19;13.70;98.50
61253;DHT22;47127;47.516;8.596;2023-03-23T06:11:45;13.70;98.30
61253;DHT22;47127;47.516;8.596;2023-03-23T06:14:11;13.80;98.20
61253;DHT22;47127;47.516;8.596;2023-03-23T06:16:37;13.70;98.00
61253;DHT22;47127;47.516;8.596;2023-03-23T06:19:03;13.80;97.80
61253;DHT22;47127;47.516;8.596;2023-03-23T06:21:30;13.90;97.80
61253;DHT22;47127;47.516;8.596;2023-03-23T06:23:56;13.90;97.90
61253;DHT22;47127;47.516;8.596;2023-03-23T06:26:32;14.00;97.50
61253;DHT22;47127;47.516;8.596;2023-03-23T06:28:57;14.00;97.40
61253;DHT22;47127;47.516;8.596;2023-03-23T06:31:23;14.00;97.70
61253;DHT22;47127;47.516;8.596;2023-03-23T06:33:49;14.00;97.50
61253;DHT22;47127;47.516;8.596;2023-03-23T06:36:15;14.10;97.40
61253;DHT22;47127;47.516;8.596;2023-03-23T06:38:42;14.20;97.40
61253;DHT22;47127;47.516;8.596;2023-03-23T06:41:07;14.30;97.50
61253;DHT22;47127;47.516;8.596;2023-03-23T06:43:34;14.30;97.20
61253;DHT22;47127;47.516;8.596;2023-03-23T06:46:01;14.30;97.10
61253;DHT22;47127;47.516;8.596;2023-03-23T06:48:27;14.40;97.00
61253;DHT22;47127;47.516;8.596;2023-03-23T06:50:53;14.50;96.50
61253;DHT22;47127;47.516;8.596;2023-03-23T06:53:18;14.60;96.40
61253;DHT22;47127;47.516;8.596;2023-03-23T06:55:45;14.60;96.60
61253;DHT22;47127;47.516;8.596;2023-03-23T06:58:12;14.60;96.40
61253;DHT22;47127;47.516;8.596;2023-03-23T07:00:38;14.60;96.10
61253;DHT22;47127;47.516;8.596;2023-03-23T07:03:05;14.70;96.40
61253;DHT22;47127;47.516;8.596;2023-03-23T07:05:33;14.70;95.80
61253;DHT22;47127;47.516;8.596;2023-03-23T07:07:59;14.80;95.70
61253;DHT22;47127;47.516;8.596;2023-03-23T07:10:25;14.90;95.60
61253;DHT22;47127;47.516;8.596;2023-03-23T07:12:50;15.00;94.40
61253;DHT22;47127;47.516;8.596;2023-03-23T07:15:16;15.10;94.70
61253;DHT22;47127;47.516;8.596;2023-03-23T07:17:42;15.10;94.50
61253;DHT22;47127;47.516;8.596;2023-03-23T07:20:08;15.20;95.10
61253;DHT22;47127;47.516;8.596;2023-03-23T07:22:34;15.30;94.60
61253;DHT22;47127;47.516;8.596;2023-03-23T07:25:00;15.30;94.80
61253;DHT22;47127;47.516;8.596;2023-03-23T07:27:27;15.40;94.10
61253;DHT22;47127;47.516;8.596;2023-03-23T07:29:54;15.30;94.00
61253;DHT22;47127;47.516;8.596;2023-03-23T07:32:20;15.30;94.70
61253;DHT22;47127;47.516;8.596;2023-03-23T07:34:45;15.50;95.80
61253;DHT22;47127;47.516;8.596;2023-03-23T07:37:11;15.40;94.30
61253;DHT22;47127;47.516;8.596;2023-03-23T07:39:37;15.40;94.30
61253;DHT22;47127;47.516;8.596;2023-03-23T07:42:02;15.40;93.90
61253;DHT22;47127;47.516;8.596;2023-03-23T07:44:28;15.30;93.70
61253;DHT22;47127;47.516;8.596;2023-03-23T07:46:54;15.30;94.10
61253;DHT22;47127;47.516;8.596;2023-03-23T07:49:19;15.40;93.60
61253;DHT22;47127;47.516;8.596;2023-03-23T07:51:45;15.40;94.10
61253;DHT22;47127;47.516;8.596;2023-03-23T07:54:11;15.40;93.40
61253;DHT22;47127;47.516;8.596;2023-03-23T07:56:38;15.30;94.40
61253;DHT22;47127;47.516;8.596;2023-03-23T07:59:05;15.40;94.40
61253;DHT22;47127;47.516;8.596;2023-03-23T08:01:32;15.40;93.50
61253;DHT22;47127;47.516;8.596;2023-03-23T08:03:58;15.40;93.30
61253;DHT22;47127;47.516;8.596;2023-03-23T08:06:25;15.40;93.50
61253;DHT22;47127;47.516;8.596;2023-03-23T08:08:51;15.60;93.50
61253;DHT22;47127;47.516;8.596;2023-03-23T08:11:18;15.70;93.30
61253;DHT22;47127;47.516;8.596;2023-03-23T08:13:44;15.60;93.20
61253;DHT22;47127;47.516;8.596;2023-03-23T08:16:10;15.70;93.40
61253;DHT22;47127;47.516;8.596;2023-03-23T08:18:37;15.70;94.20
61253;DHT22;47127;47.516;8.596;2023-03-23T08:21:03;15.80;93.60
61253;DHT22;47127;47.516;8.596;2023-03-23T08:23:32;15.80;93.20
61253;DHT22;47127;47.516;8.596;2023-03-23T08:25:59;15.90;93.40
61253;DHT22;47127;47.516;8.596;2023-03-23T08:28:25;16.00;92.90
61253;DHT22;47127;47.516;8.596;2023-03-23T08:30:50;16.10;93.10
61253;DHT22;47127;47.516;8.596;2023-03-23T08:33:16;16.00;92.90
61253;DHT22;47127;47.516;8.596;2023-03-23T08:35:42;16.00;92.20
61253;DHT22;47127;47.516;8.596;2023-03-23T08:38:10;16.10;91.90
61253;DHT22;47127;47.516;8.596;2023-03-23T08:40:37;16.10;92.20
61253;DHT22;47127;47.516;8.596;2023-03-23T08:43:03;16.10;93.00
61253;DHT22;47127;47.516;8.596;2023-03-23T08:45:29;16.20;92.10
61253;DHT22;47127;47.516;8.596;2023-03-23T08:47:55;16.10;93.30
61253;DHT22;47127;47.516;8.596;2023-03-23T08:50:25;16.20;92.70
61253;DHT22;47127;47.516;8.596;2023-03-23T08:52:51;16.10;91.70
61253;DHT22;47127;47.516;8.596;2023-03-23T08:55:19;16.10;92.50
61253;DHT22;47127;47.516;8.596;2023-03-23T08:57:45;16.10;92.10
61253;DHT22;47127;47.516;8.596;2023-03-23T09:00:14;16.00;91.40
61253;DHT22;47127;47.516;8.596;2023-03-23T09:02:45;16.00;94.40
61253;DHT22;47127;47.516;8.596;2023-03-23T09:05:11;16.20;93.20
61253;DHT22;47127;47.516;8.596;2023-03-23T09:07:41;16.30;92.10
61253;DHT22;47127;47.516;8.596;2023-03-23T09:10:08;16.30;92.10
61253;DHT22;47127;47.516;8.596;2023-03-23T09:12:33;16.40;92.60
61253;DHT22;47127;47.516;8.596;2023-03-23T09:15:00;16.40;91.30
61253;DHT22;47127;47.516;8.596;2023-03-23T09:17:30;16.40;91.50
61253;DHT22;47127;47.516;8.596;2023-03-23T09:19:56;16.40;91.40
61253;DHT22;47127;47.516;8.596;2023-03-23T09:22:22;16.50;92.00
61253;DHT22;47127;47.516;8.596;2023-03-23T09:24:49;16.60;91.50
61253;DHT22;47127;47.516;8.596;2023-03-23T09:27:17;16.80;90.40
61253;DHT22;47127;47.516;8.596;2023-03-23T09:29:43;16.70;89.30
61253;DHT22;47127;47.516;8.596;2023-03-23T09:32:10;16.70;90.50
61253;DHT22;47127;47.516;8.596;2023-03-23T09:34:38;16.70;90.30
61253;DHT22;47127;47.516;8.596;2023-03-23T09:37:04;16.80;90.90
61253;DHT22;47127;47.516;8.596;2023-03-23T09:39:30;16.90;90.40
61253;DHT22;47127;47.516;8.596;2023-03-23T09:50:38;16.70;88.90
61253;DHT22;47127;47.516;8.596;2023-03-23T09:53:22;16.90;90.00
61253;DHT22;47127;47.516;8.596;2023-03-23T09:55:49;16.90;89.10
61253;DHT22;47127;47.516;8.596;2023-03-23T09:58:20;17.10;87.30
61253;DHT22;47127;47.516;8.596;2023-03-23T10:03:41;16.90;90.40
61253;DHT22;47127;47.516;8.596;2023-03-23T10:06:14;16.80;88.20
61253;DHT22;47127;47.516;8.596;2023-03-23T10:08:46;16.70;89.50
61253;DHT22;47127;47.516;8.596;2023-03-23T10:11:35;16.50;88.50
61253;DHT22;47127;47.516;8.596;2023-03-23T10:19:54;16.30;90.20
61253;DHT22;47127;47.516;8.596;2023-03-23T10:22:50;16.30;91.00
61253;DHT22;47127;47.516;8.596;2023-03-23T10:25:19;16.10;90.60
61253;DHT22;47127;47.516;8.596;2023-03-23T10:30:36;16.10;90.10
61253;DHT22;47127;47.516;8.596;2023-03-23T10:33:04;16.20;89.90
61253;DHT22;47127;47.516;8.596;2023-03-23T10:35:44;16.30;90.50
61253;DHT22;47127;47.516;8.596;2023-03-23T10:38:19;16.30;90.30
61253;DHT22;47127;47.516;8.596;2023-03-23T10:40:50;16.50;90.50
61253;DHT22;47127;47.516;8.596;2023-03-23T10:43:18;16.60;90.10
61253;DHT22;47127;47.516;8.596;2023-03-23T10:45:46;16.80;89.90
61253;DHT22;47127;47.516;8.596;2023-03-23T10:48:25;16.90;90.50
61253;DHT22;47127;47.516;8.596;2023-03-23T10:50:57;17.00;90.20
61253;DHT22;47127;47.516;8.596;2023-03-23T10:53:29;17.10;90.60
61253;DHT22;47127;47.516;8.596;2023-03-23T10:55:57;17.10;91.30
61253;DHT22;47127;47.516;8.596;2023-03-23T10:58:27;17.20;90.00
61253;DHT22;47127;47.516;8.596;2023-03-23T11:00:58;17.20;89.60
61253;DHT22;47127;47.516;8.596;2023-03-23T11:03:40;17.30;91.30
61253;DHT22;47127;47.516;8.596;2023-03-23T11:06:19;17.40;91.60
61253;DHT22;47127;47.516;8.596;2023-03-23T11:09:00;18.20;91.60
61253;DHT22;47127;47.516;8.596;2023-03-23T11:11:32;17.40;89.70
61253;DHT22;47127;47.516;8.596;2023-03-23T11:14:25;17.50;88.80
61253;DHT22;47127;47.516;8.596;2023-03-23T11:16:55;17.60;89.10
61253;DHT22;47127;47.516;8.596;2023-03-23T11:19:32;17.80;87.10
61253;DHT22;47127;47.516;8.596;2023-03-23T11:22:08;17.90;85.50
61253;DHT22;47127;47.516;8.596;2023-03-23T11:24:40;17.80;86.30
61253;DHT22;47127;47.516;8.596;2023-03-23T11:27:08;17.70;88.60
61253;DHT22;47127;47.516;8.596;2023-03-23T11:29:47;17.60;87.10
61253;DHT22;47127;47.516;8.596;2023-03-23T11:32:15;17.80;88.50
61253;DHT22;47127;47.516;8.596;2023-03-23T11:34:48;17.50;89.50
61253;DHT22;47127;47.516;8.596;2023-03-23T11:39:55;17.50;89.30
61253;DHT22;47127;47.516;8.596;2023-03-23T11:42:26;17.60;88.00
61253;DHT22;47127;47.516;8.596;2023-03-23T11:45:33;17.70;85.60
61253;DHT22;47127;47.516;8.596;2023-03-23T11:48:33;17.70;87.50
61253;DHT22;47127;47.516;8.596;2023-03-23T11:56:44;17.80;86.40
61253;DHT22;47127;47.516;8.596;2023-03-23T11:59:15;17.70;86.20
61253;DHT22;47127;47.516;8.596;2023-03-23T12:01:51;17.60;86.80
61253;DHT22;47127;47.516;8.596;2023-03-23T12:04:35;17.70;86.70
61253;DHT22;47127;47.516;8.596;2023-03-23T12:10:13;17.80;88.00
61253;DHT22;47127;47.516;8.596;2023-03-23T12:12:46;17.90;87.00
61253;DHT22;47127;47.516;8.596;2023-03-23T12:15:18;17.90;86.30
61253;DHT22;47127;47.516;8.596;2023-03-23T12:18:04;17.90;85.70
61253;DHT22;47127;47.516;8.596;2023-03-23T12:23:59;18.20;83.30
61253;DHT22;47127;47.516;8.596;2023-03-23T12:26:34;18.40;82.70
61253;DHT22;47127;47.516;8.596;2023-03-23T12:31:49;18.40;83.30
61253;DHT22;47127;47.516;8.596;2023-03-23T12:37:47;18.80;82.20
61253;DHT22;47127;47.516;8.596;2023-03-23T12:40:46;18.80;81.70
61253;DHT22;47127;47.516;8.596;2023-03-23T12:43:18;18.80;82.30
61253;DHT22;47127;47.516;8.596;2023-03-23T12:46:13;18.90;80.50
61253;DHT22;47127;47.516;8.596;2023-03-23T12:48:43;19.00;84.30
61253;DHT22;47127;47.516;8.596;2023-03-23T12:54:02;18.90;81.00
61253;DHT22;47127;47.516;8.596;2023-03-23T13:02:29;18.20;81.60
61253;DHT22;47127;47.516;8.596;2023-03-23T13:07:41;17.70;83.10
61253;DHT22;47127;47.516;8.596;2023-03-23T13:12:34;17.60;84.90
61253;DHT22;47127;47.516;8.596;2023-03-23T13:15:31;17.70;86.40
61253;DHT22;47127;47.516;8.596;2023-03-23T13:18:31;17.70;86.10
61253;DHT22;47127;47.516;8.596;2023-03-23T13:23:53;17.50;86.30
61253;DHT22;47127;47.516;8.596;2023-03-23T13:26:22;17.50;85.40
61253;DHT22;47127;47.516;8.596;2023-03-23T13:28:57;17.50;85.90
61253;DHT22;47127;47.516;8.596;2023-03-23T13:31:28;17.50;86.70
61253;DHT22;47127;47.516;8.596;2023-03-23T13:34:24;17.50;87.40
61253;DHT22;47127;47.516;8.596;2023-03-23T13:37:01;17.50;89.50
61253;DHT22;47127;47.516;8.596;2023-03-23T13:39:47;17.50;89.70
61253;DHT22;47127;47.516;8.596;2023-03-23T13:50:00;17.00;90.70
61253;DHT22;47127;47.516;8.596;2023-03-23T13:52:46;17.00;90.60
61253;DHT22;47127;47.516;8.596;2023-03-23T14:05:45;17.10;88.70
61253;DHT22;47127;47.516;8.596;2023-03-23T14:08:38;17.20;90.20
61253;DHT22;47127;47.516;8.596;2023-03-23T14:11:26;17.30;88.50
61253;DHT22;47127;47.516;8.596;2023-03-23T14:14:14;17.30;89.00
61253;DHT22;47127;47.516;8.596;2023-03-23T14:16:44;17.30;89.50
61253;DHT22;47127;47.516;8.596;2023-03-23T14:21:50;17.40;89.30
61253;DHT22;47127;47.516;8.596;2023-03-23T14:24:19;17.40;91.00
61253;DHT22;47127;47.516;8.596;2023-03-23T14:26:45;17.60;90.20
61253;DHT22;47127;47.516;8.596;2023-03-23T14:29:12;17.60;89.80
61253;DHT22;47127;47.516;8.596;2023-03-23T14:31:39;17.80;88.00
61253;DHT22;47127;47.516;8.596;2023-03-23T14:34:18;17.80;88.50
61253;DHT22;47127;47.516;8.596;2023-03-23T14:36:44;17.70;87.40
61253;DHT22;47127;47.516;8.596;2023-03-23T14:41:47;17.60;85.30
61253;DHT22;47127;47.516;8.596;2023-03-23T14:44:17;17.60;83.50
61253;DHT22;47127;47.516;8.596;2023-03-23T14:46:50;17.60;84.00
61253;DHT22;47127;47.516;8.596;2023-03-23T14:49:18;17.60;85.00
61253;DHT22;47127;47.516;8.596;2023-03-23T14:51:54;17.60;84.00
61253;DHT22;47127;47.516;8.596;2023-03-23T14:54:26;17.60;84.10
61253;DHT22;47127;47.516;8.596;2023-03-23T14:56:53;17.60;84.00
61253;DHT22;47127;47.516;8.596;2023-03-23T14:59:19;17.60;84.80
61253;DHT22;47127;47.516;8.596;2023-03-23T15:01:47;17.50;83.80
61253;DHT22;47127;47.516;8.596;2023-03-23T15:04:21;17.50;84.90
61253;DHT22;47127;47.516;8.596;2023-03-23T15:06:54;17.40;85.40
61253;DHT22;47127;47.516;8.596;2023-03-23T15:09:23;17.40;85.70
61253;DHT22;47127;47.516;8.596;2023-03-23T15:12:00;17.30;85.10
61253;DHT22;47127;47.516;8.596;2023-03-23T15:14:47;17.20;84.90
61253;DHT22;47127;47.516;8.596;2023-03-23T15:17:27;17.20;83.70
61253;DHT22;47127;47.516;8.596;2023-03-23T15:19:54;17.10;85.50
61253;DHT22;47127;47.516;8.596;2023-03-23T15:22:24;17.10;85.50
61253;DHT22;47127;47.516;8.596;2023-03-23T15:24:53;17.20;85.50
61253;DHT22;47127;47.516;8.596;2023-03-23T15:27:29;17.10;84.20
61253;DHT22;47127;47.516;8.596;2023-03-23T15:29:57;17.00;84.90
61253;DHT22;47127;47.516;8.596;2023-03-23T15:32:37;17.00;85.40
61253;DHT22;47127;47.516;8.596;2023-03-23T15:35:16;17.10;84.70
61253;DHT22;47127;47.516;8.596;2023-03-23T15:37:44;17.10;85.90
61253;DHT22;47127;47.516;8.596;2023-03-23T15:40:16;17.00;86.10
61253;DHT22;47127;47.516;8.596;2023-03-23T15:42:42;17.00;86.10
61253;DHT22;47127;47.516;8.596;2023-03-23T15:47:46;17.10;86.30
61253;DHT22;47127;47.516;8.596;2023-03-23T15:50:13;17.20;86.90
61253;DHT22;47127;47.516;8.596;2023-03-23T15:52:39;17.30;86.90
61253;DHT22;47127;47.516;8.596;2023-03-23T15:55:34;17.30;86.40
61253;DHT22;47127;47.516;8.596;2023-03-23T15:58:01;17.30;86.50
61253;DHT22;47127;47.516;8.596;2023-03-23T16:00:30;17.30;86.90
61253;DHT22;47127;47.516;8.596;2023-03-23T16:02:59;17.30;86.40
61253;DHT22;47127;47.516;8.596;2023-03-23T16:05:26;17.40;87.70
61253;DHT22;47127;47.516;8.596;2023-03-23T16:07:53;17.40;87.00
61253;DHT22;47127;47.516;8.596;2023-03-23T16:10:21;17.40;87.60
61253;DHT22;47127;47.516;8.596;2023-03-23T16:12:47;17.40;87.00
61253;DHT22;47127;47.516;8.596;2023-03-23T16:15:14;17.30;88.10
61253;DHT22;47127;47.516;8.596;2023-03-23T16:17:43;17.30;88.10
61253;DHT22;47127;47.516;8.596;2023-03-23T16:20:19;17.30;88.40
61253;DHT22;47127;47.516;8.596;2023-03-23T16:22:45;17.20;88.10
61253;DHT22;47127;47.516;8.596;2023-03-23T16:25:13;17.20;88.50
61253;DHT22;47127;47.516;8.596;2023-03-23T16:27:40;17.20;88.70
61253;DHT22;47127;47.516;8.596;2023-03-23T16:30:26;17.10;87.00
61253;DHT22;47127;47.516;8.596;2023-03-23T16:32:52;17.10;88.20
61253;DHT22;47127;47.516;8.596;2023-03-23T16:35:20;17.20;87.40
61253;DHT22;47127;47.516;8.596;2023-03-23T16:37:48;17.20;87.00
61253;DHT22;47127;47.516;8.596;2023-03-23T16:40:15;17.20;87.80
61253;DHT22;47127;47.516;8.596;2023-03-23T16:42:41;17.20;86.50
61253;DHT22;47127;47.516;8.596;2023-03-23T16:45:08;17.10;86.30
61253;DHT22;47127;47.516;8.596;2023-03-23T16:47:35;17.10;85.90
61253;DHT22;47127;47.516;8.596;2023-03-23T16:50:01;17.00;86.50
61253;DHT22;47127;47.516;8.596;2023-03-23T16:52:27;16.90;87.20
61253;DHT22;47127;47.516;8.596;2023-03-23T16:54:52;16.90;88.40
61253;DHT22;47127;47.516;8.596;2023-03-23T16:57:19;16.90;86.70
61253;DHT22;47127;47.516;8.596;2023-03-23T16:59:46;16.90;86.90
61253;DHT22;47127;47.516;8.596;2023-03-23T17:02:14;16.90;87.20
61253;DHT22;47127;47.516;8.596;2023-03-23T17:04:44;16.90;87.20
61253;DHT22;47127;47.516;8.596;2023-03-23T17:07:11;16.80;86.70
61253;DHT22;47127;47.516;8.596;2023-03-23T17:09:37;16.80;88.20
61253;DHT22;47127;47.516;8.596;2023-03-23T17:12:03;16.80;88.00
61253;DHT22;47127;47.516;8.596;2023-03-23T17:14:29;16.80;87.80
61253;DHT22;47127;47.516;8.596;2023-03-23T17:16:55;16.70;87.90
61253;DHT22;47127;47.516;8.596;2023-03-23T17:19:21;16.70;88.50
61253;DHT22;47127;47.516;8.596;2023-03-23T17:21:47;16.70;89.30
61253;DHT22;47127;47.516;8.596;2023-03-23T17:24:12;16.70;89.10
61253;DHT22;47127;47.516;8.596;2023-03-23T17:26:39;16.60;88.30